sensor_id;sensor_type;location;lat;lon;timestamp;pressure;altitude;pressure_sealevel;temperature;humidity
60974;BME280;46846;51.528;5.076;2023-01-29T00:01:06;102544.97;;;0.35;77.68
60974;BME280;46846;51.528;5.076;2023-01-29T00:03:32;102545.09;;;0.38;77.83
60974;BME280;46846;51.528;5.076;2023-01-29T00:05:58;102537.13;;;0.35;77.75
60974;BME280;46846;51.528;5.076;2023-01-29T00:08:24;102537.03;;;0.32;77.47
60974;BME280;46846;51.528;5.076;2023-01-29T00:10:50;102541.41;;;0.33;77.35
60974;BME280;46846;51.528;5.076;2023-01-29T00:13:16;102547.56;;;0.34;78.00
60974;BME280;46846;51.528;5.076;2023-01-29T00:15:41;102548.50;;;0.36;77.47
60974;BME280;46846;51.528;5.076;2023-01-29T00:18:07;102544.97;;;0.35;77.53
60974;BME280;46846;51.528;5.076;2023-01-29T00:20:32;102540.59;;;0.34;77.42
60974;BME280;46846;51.528;5.076;2023-01-29T00:22:58;102542.44;;;0.37;77.32
60974;BME280;46846;51.528;5.076;2023-01-29T00:25:23;102524.72;;;0.30;77.99
60974;BME280;46846;51.528;5.076;2023-01-29T00:27:49;102519.56;;;0.33;77.41
60974;BME280;46846;51.528;5.076;2023-01-29T00:30:15;102525.41;;;0.25;77.61
60974;BME280;46846;51.528;5.076;2023-01-29T00:32:43;102525.50;;;0.27;77.40
60974;BME280;46846;51.528;5.076;2023-01-29T00:35:09;102514.78;;;0.21;77.41
60974;BME280;46846;51.528;5.076;2023-01-29T00:37:35;102518.53;;;0.28;77.88
60974;BME280;46846;51.528;5.076;2023-01-29T00:40:00;102518.31;;;0.21;77.54
60974;BME280;46846;51.528;5.076;2023-01-29T00:42:25;102519.09;;;0.19;77.81
60974;BME280;46846;51.528;5.076;2023-01-29T00:45:10;102504.22;;;0.18;78.09
60974;BME280;46846;51.528;5.076;2023-01-29T00:47:36;102508.72;;;0.22;77.41
60974;BME280;46846;51.528;5.076;2023-01-29T00:50:05;102495.63;;;0.22;77.64
60974;BME280;46846;51.528;5.076;2023-01-29T00:52:33;102501.00;;;0.25;77.67
60974;BME280;46846;51.528;5.076;2023-01-29T00:55:01;102494.81;;;0.23;77.73
60974;BME280;46846;51.528;5.076;2023-01-29T00:57:29;102491.19;;;0.19;77.92
60974;BME280;46846;51.528;5.076;2023-01-29T00:59:55;102478.97;;;0.20;77.72
60974;BME280;46846;51.528;5.076;2023-01-29T01:02:21;102482.53;;;0.22;77.50
60974;BME280;46846;51.528;5.076;2023-01-29T01:05:06;102486.97;;;0.23;77.29
60974;BME280;46846;51.528;5.076;2023-01-29T01:07:32;102478.25;;;0.24;77.17
60974;BME280;46846;51.528;5.076;2023-01-29T01:09:58;102486.91;;;0.21;77.44
60974;BME280;46846;51.528;5.076;2023-01-29T01:12:42;102494.84;;;0.24;77.30
60974;BME280;46846;51.528;5.076;2023-01-29T01:15:08;102488.78;;;0.25;77.03
60974;BME280;46846;51.528;5.076;2023-01-29T01:17:34;102481.38;;;0.13;77.72
60974;BME280;46846;51.528;5.076;2023-01-29T01:19:59;102474.53;;;0.17;77.85
60974;BME280;46846;51.528;5.076;2023-01-29T01:22:25;102472.66;;;0.13;77.31
60974;BME280;46846;51.528;5.076;2023-01-29T01:24:50;102480.53;;;0.15;77.63
60974;BME280;46846;51.528;5.076;2023-01-29T01:27:16;102476.28;;;0.17;77.41
60974;BME280;46846;51.528;5.076;2023-01-29T01:29:44;102476.03;;;0.10;77.38
60974;BME280;46846;51.528;5.076;2023-01-29T01:32:09;102479.34;;;0.05;77.92
60974;BME280;46846;51.528;5.076;2023-01-29T01:34:35;102477.66;;;0.07;77.67
60974;BME280;46846;51.528;5.076;2023-01-29T01:37:00;102475.13;;;0.10;78.25
60974;BME280;46846;51.528;5.076;2023-01-29T01:39:25;102473.38;;;0.09;77.63
60974;BME280;46846;51.528;5.076;2023-01-29T01:41:52;102477.72;;;0.08;77.84
60974;BME280;46846;51.528;5.076;2023-01-29T01:47:46;102484.00;;;0.13;77.52
60974;BME280;46846;51.528;5.076;2023-01-29T01:50:37;102481.44;;;0.15;77.68
60974;BME280;46846;51.528;5.076;2023-01-29T01:53:06;102477.88;;;0.13;77.52
60974;BME280;46846;51.528;5.076;2023-01-29T01:55:34;102487.13;;;0.03;77.52
60974;BME280;46846;51.528;5.076;2023-01-29T01:58:08;102488.97;;;0.06;77.58
60974;BME280;46846;51.528;5.076;2023-01-29T02:00:35;102490.69;;;0.05;78.10
60974;BME280;46846;51.528;5.076;2023-01-29T02:03:01;102487.19;;;0.05;77.94
60974;BME280;46846;51.528;5.076;2023-01-29T02:05:46;102494.75;;;-0.03;77.93
60974;BME280;46846;51.528;5.076;2023-01-29T02:08:39;102491.25;;;-0.04;78.12
60974;BME280;46846;51.528;5.076;2023-01-29T02:11:25;102490.69;;;0.05;78.10
60974;BME280;46846;51.528;5.076;2023-01-29T02:13:51;102487.22;;;0.06;77.92
60974;BME280;46846;51.528;5.076;2023-01-29T02:16:20;102494.66;;;-0.06;77.70
60974;BME280;46846;51.528;5.076;2023-01-29T02:18:46;102498.38;;;0.01;78.13
60974;BME280;46846;51.528;5.076;2023-01-29T02:24:17;102504.16;;;-0.08;78.50
60974;BME280;46846;51.528;5.076;2023-01-29T02:26:55;102509.63;;;-0.02;77.98
60974;BME280;46846;51.528;5.076;2023-01-29T02:34:47;102504.91;;;-0.12;78.10
60974;BME280;46846;51.528;5.076;2023-01-29T02:37:40;102500.81;;;-0.04;78.19
60974;BME280;46846;51.528;5.076;2023-01-29T02:43:06;102495.59;;;-0.04;78.08
60974;BME280;46846;51.528;5.076;2023-01-29T02:45:46;102492.28;;;0.00;78.31
60974;BME280;46846;51.528;5.076;2023-01-29T02:48:22;102495.50;;;-0.07;78.30
60974;BME280;46846;51.528;5.076;2023-01-29T02:51:00;102487.59;;;-0.09;78.07
60974;BME280;46846;51.528;5.076;2023-01-29T02:53:50;102492.19;;;-0.02;78.07
60974;BME280;46846;51.528;5.076;2023-01-29T02:56:25;102482.72;;;0.02;77.77
60974;BME280;46846;51.528;5.076;2023-01-29T02:59:01;102488.00;;;0.04;78.17
60974;BME280;46846;51.528;5.076;2023-01-29T03:01:39;102487.97;;;0.02;77.55
60974;BME280;46846;51.528;5.076;2023-01-29T03:04:10;102487.13;;;0.03;77.54
60974;BME280;46846;51.528;5.076;2023-01-29T03:06:50;102480.97;;;0.01;77.90
60974;BME280;46846;51.528;5.076;2023-01-29T03:09:25;102481.84;;;0.02;78.07
60974;BME280;46846;51.528;5.076;2023-01-29T03:11:54;102479.28;;;0.03;78.16
60974;BME280;46846;51.528;5.076;2023-01-29T03:14:35;102481.91;;;0.03;77.76
60974;BME280;46846;51.528;5.076;2023-01-29T03:17:24;102479.13;;;-0.02;78.13
60974;BME280;46846;51.528;5.076;2023-01-29T03:19:50;102479.06;;;-0.03;77.76
60974;BME280;46846;51.528;5.076;2023-01-29T03:22:17;102478.97;;;-0.06;78.16
60974;BME280;46846;51.528;5.076;2023-01-29T03:24:52;102470.38;;;-0.02;78.12
60974;BME280;46846;51.528;5.076;2023-01-29T03:27:44;102465.97;;;-0.03;78.08
60974;BME280;46846;51.528;5.076;2023-01-29T03:30:34;102466.09;;;0.00;78.08
60974;BME280;46846;51.528;5.076;2023-01-29T03:33:22;102458.25;;;0.00;78.11
60974;BME280;46846;51.528;5.076;2023-01-29T03:35:55;102458.19;;;-0.02;77.99
60974;BME280;46846;51.528;5.076;2023-01-29T03:38:25;102466.66;;;-0.09;77.97
60974;BME280;46846;51.528;5.076;2023-01-29T03:41:21;102471.25;;;-0.02;78.25
60974;BME280;46846;51.528;5.076;2023-01-29T03:46:41;102464.97;;;-0.07;78.14
60974;BME280;46846;51.528;5.076;2023-01-29T03:57:16;102447.59;;;-0.05;77.92
60974;BME280;46846;51.528;5.076;2023-01-29T04:02:16;102444.94;;;-0.06;78.22
60974;BME280;46846;51.528;5.076;2023-01-29T04:04:54;102446.81;;;-0.02;78.10
60974;BME280;46846;51.528;5.076;2023-01-29T04:07:23;102439.78;;;-0.03;77.86
60974;BME280;46846;51.528;5.076;2023-01-29T04:09:53;102436.47;;;0.01;77.72
60974;BME280;46846;51.528;5.076;2023-01-29T04:12:35;102446.97;;;0.03;78.15
60974;BME280;46846;51.528;5.076;2023-01-29T04:15:05;102438.34;;;0.05;77.85
60974;BME280;46846;51.528;5.076;2023-01-29T04:17:36;102426.94;;;0.03;77.88
60974;BME280;46846;51.528;5.076;2023-01-29T04:20:04;102432.22;;;0.05;77.50
60974;BME280;46846;51.528;5.076;2023-01-29T04:22:35;102433.09;;;0.05;78.06
60974;BME280;46846;51.528;5.076;2023-01-29T04:25:04;102441.94;;;0.09;77.68
60974;BME280;46846;51.528;5.076;2023-01-29T04:27:50;102446.94;;;0.01;77.90
60974;BME280;46846;51.528;5.076;2023-01-29T04:38:31;102427.66;;;-0.01;78.05
60974;BME280;46846;51.528;5.076;2023-01-29T04:41:15;102427.78;;;0.02;77.74
60974;BME280;46846;51.528;5.076;2023-01-29T04:44:14;102417.41;;;0.05;78.17
60974;BME280;46846;51.528;5.076;2023-01-29T04:54:50;102398.06;;;0.00;77.84
60974;BME280;46846;51.528;5.076;2023-01-29T04:57:21;102392.00;;;0.03;78.11
60974;BME280;46846;51.528;5.076;2023-01-29T04:59:59;102398.06;;;0.00;77.74
60974;BME280;46846;51.528;5.076;2023-01-29T05:02:26;102399.75;;;-0.01;78.36
60974;BME280;46846;51.528;5.076;2023-01-29T05:04:53;102394.47;;;-0.02;78.06
60974;BME280;46846;51.528;5.076;2023-01-29T05:07:22;102388.50;;;0.02;78.17
60974;BME280;46846;51.528;5.076;2023-01-29T05:09:49;102393.78;;;0.04;78.24
60974;BME280;46846;51.528;5.076;2023-01-29T05:12:16;102394.69;;;0.04;77.69
60974;BME280;46846;51.528;5.076;2023-01-29T05:14:44;102382.53;;;0.06;77.88
60974;BME280;46846;51.528;5.076;2023-01-29T05:17:15;102372.06;;;0.06;77.83
60974;BME280;46846;51.528;5.076;2023-01-29T05:19:42;102367.72;;;0.07;78.25
60974;BME280;46846;51.528;5.076;2023-01-29T05:22:09;102368.34;;;-0.01;78.18
60974;BME280;46846;51.528;5.076;2023-01-29T05:24:36;102364.03;;;0.00;77.95
60974;BME280;46846;51.528;5.076;2023-01-29T05:27:01;102364.22;;;0.06;78.30
60974;BME280;46846;51.528;5.076;2023-01-29T05:29:46;102352.09;;;0.08;77.89
60974;BME280;46846;51.528;5.076;2023-01-29T05:32:12;102349.47;;;0.08;77.76
60974;BME280;46846;51.528;5.076;2023-01-29T05:34:37;102345.88;;;0.06;78.14
60974;BME280;46846;51.528;5.076;2023-01-29T05:37:03;102344.94;;;0.04;77.76
60974;BME280;46846;51.528;5.076;2023-01-29T05:39:29;102358.09;;;0.06;78.24
60974;BME280;46846;51.528;5.076;2023-01-29T05:41:54;102352.03;;;0.07;77.86
60974;BME280;46846;51.528;5.076;2023-01-29T05:44:20;102353.66;;;0.03;77.92
60974;BME280;46846;51.528;5.076;2023-01-29T05:46:45;102359.81;;;0.05;78.20
60974;BME280;46846;51.528;5.076;2023-01-29T05:49:11;102354.72;;;0.10;78.24
60974;BME280;46846;51.528;5.076;2023-01-29T05:51:36;102371.28;;;0.09;77.78
60974;BME280;46846;51.528;5.076;2023-01-29T05:54:02;102372.97;;;0.07;77.69
60974;BME280;46846;51.528;5.076;2023-01-29T05:56:28;102375.53;;;0.05;77.99
60974;BME280;46846;51.528;5.076;2023-01-29T05:58:54;102373.81;;;0.06;78.35
60974;BME280;46846;51.528;5.076;2023-01-29T06:01:21;102374.84;;;0.11;78.15
60974;BME280;46846;51.528;5.076;2023-01-29T06:03:47;102366.25;;;0.15;78.00
60974;BME280;46846;51.528;5.076;2023-01-29T06:06:13;102372.34;;;0.14;77.71
60974;BME280;46846;51.528;5.076;2023-01-29T06:08:39;102366.31;;;0.17;77.74
60974;BME280;46846;51.528;5.076;2023-01-29T06:11:09;102368.94;;;0.17;77.67
60974;BME280;46846;51.528;5.076;2023-01-29T06:13:34;102373.31;;;0.18;78.31
60974;BME280;46846;51.528;5.076;2023-01-29T06:16:03;102370.72;;;0.18;77.33
60974;BME280;46846;51.528;5.076;2023-01-29T06:18:29;102384.84;;;0.23;77.52
60974;BME280;46846;51.528;5.076;2023-01-29T06:20:54;102383.94;;;0.22;77.65
60974;BME280;46846;51.528;5.076;2023-01-29T06:23:19;102381.25;;;0.19;77.42
60974;BME280;46846;51.528;5.076;2023-01-29T06:25:45;102380.41;;;0.20;77.68
60974;BME280;46846;51.528;5.076;2023-01-29T06:28:10;102382.06;;;0.18;77.35
60974;BME280;46846;51.528;5.076;2023-01-29T06:30:35;102383.88;;;0.21;77.66
60974;BME280;46846;51.528;5.076;2023-01-29T06:33:01;102366.56;;;0.24;77.82
60974;BME280;46846;51.528;5.076;2023-01-29T06:35:27;102371.00;;;0.27;77.37
60974;BME280;46846;51.528;5.076;2023-01-29T06:37:52;102361.22;;;0.21;77.84
60974;BME280;46846;51.528;5.076;2023-01-29T06:40:18;102345.41;;;0.18;77.95
60974;BME280;46846;51.528;5.076;2023-01-29T06:42:43;102338.38;;;0.16;78.00
60974;BME280;46846;51.528;5.076;2023-01-29T06:45:09;102338.31;;;0.14;78.11
60974;BME280;46846;51.528;5.076;2023-01-29T06:47:35;102344.41;;;0.15;78.01
60974;BME280;46846;51.528;5.076;2023-01-29T06:50:00;102352.19;;;0.11;77.96
60974;BME280;46846;51.528;5.076;2023-01-29T06:52:26;102350.41;;;0.10;77.79
60974;BME280;46846;51.528;5.076;2023-01-29T06:54:53;102346.09;;;0.12;77.65
60974;BME280;46846;51.528;5.076;2023-01-29T06:57:19;102350.59;;;0.17;77.61
60974;BME280;46846;51.528;5.076;2023-01-29T06:59:44;102354.84;;;0.13;77.85
60974;BME280;46846;51.528;5.076;2023-01-29T07:02:09;102348.78;;;0.14;77.69
60974;BME280;46846;51.528;5.076;2023-01-29T07:04:35;102349.63;;;0.13;78.03
60974;BME280;46846;51.528;5.076;2023-01-29T07:07:02;102355.56;;;0.09;77.83
60974;BME280;46846;51.528;5.076;2023-01-29T07:09:27;102352.09;;;0.08;78.45
60974;BME280;46846;51.528;5.076;2023-01-29T07:11:52;102347.84;;;0.12;78.19
60974;BME280;46846;51.528;5.076;2023-01-29T07:14:18;102350.25;;;0.06;78.04
60974;BME280;46846;51.528;5.076;2023-01-29T07:16:43;102349.72;;;0.16;78.43
60974;BME280;46846;51.528;5.076;2023-01-29T07:19:08;102363.69;;;0.17;78.27
60974;BME280;46846;51.528;5.076;2023-01-29T07:21:34;102361.94;;;0.16;78.00
60974;BME280;46846;51.528;5.076;2023-01-29T07:23:59;102349.81;;;0.19;77.86
60974;BME280;46846;51.528;5.076;2023-01-29T07:26:25;102352.47;;;0.21;77.66
60974;BME280;46846;51.528;5.076;2023-01-29T07:28:50;102364.53;;;0.16;77.92
60974;BME280;46846;51.528;5.076;2023-01-29T07:31:15;102358.34;;;0.13;77.80
60974;BME280;46846;51.528;5.076;2023-01-29T07:33:44;102353.16;;;0.15;77.77
60974;BME280;46846;51.528;5.076;2023-01-29T07:36:11;102351.44;;;0.16;78.29
60974;BME280;46846;51.528;5.076;2023-01-29T07:38:36;102358.34;;;0.13;78.15
60974;BME280;46846;51.528;5.076;2023-01-29T07:41:02;102356.56;;;0.12;78.09
60974;BME280;46846;51.528;5.076;2023-01-29T07:43:27;102355.84;;;0.17;78.04
60974;BME280;46846;51.528;5.076;2023-01-29T07:45:53;102357.63;;;0.18;78.11
60974;BME280;46846;51.528;5.076;2023-01-29T07:48:18;102359.41;;;0.19;77.76
60974;BME280;46846;51.528;5.076;2023-01-29T07:50:43;102357.50;;;0.15;77.70
60974;BME280;46846;51.528;5.076;2023-01-29T07:53:13;102348.63;;;0.09;78.20
60974;BME280;46846;51.528;5.076;2023-01-29T07:55:39;102347.09;;;0.16;78.04
60974;BME280;46846;51.528;5.076;2023-01-29T07:58:05;102352.81;;;0.04;78.42
60974;BME280;46846;51.528;5.076;2023-01-29T08:00:30;102351.13;;;0.06;78.76
60974;BME280;46846;51.528;5.076;2023-01-29T08:03:04;102352.31;;;0.16;77.74
60974;BME280;46846;51.528;5.076;2023-01-29T08:05:30;102342.78;;;0.18;77.89
60974;BME280;46846;51.528;5.076;2023-01-29T08:07:56;102348.84;;;0.16;78.15
60974;BME280;46846;51.528;5.076;2023-01-29T08:10:21;102344.41;;;0.15;78.32
60974;BME280;46846;51.528;5.076;2023-01-29T08:12:47;102337.31;;;0.10;78.12
60974;BME280;46846;51.528;5.076;2023-01-29T08:15:17;102328.34;;;0.04;78.76
60974;BME280;46846;51.528;5.076;2023-01-29T08:17:42;102337.31;;;0.10;78.21
60974;BME280;46846;51.528;5.076;2023-01-29T08:20:08;102329.31;;;0.06;77.78
60974;BME280;46846;51.528;5.076;2023-01-29T08:22:34;102330.41;;;0.12;78.21
60974;BME280;46846;51.528;5.076;2023-01-29T08:24:59;102334.84;;;0.15;78.06
60974;BME280;46846;51.528;5.076;2023-01-29T08:27:24;102331.38;;;0.16;78.11
60974;BME280;46846;51.528;5.076;2023-01-29T08:29:50;102330.44;;;0.14;78.29
60974;BME280;46846;51.528;5.076;2023-01-29T08:32:15;102324.47;;;0.18;77.73
60974;BME280;46846;51.528;5.076;2023-01-29T08:34:40;102333.78;;;0.10;77.88
60974;BME280;46846;51.528;5.076;2023-01-29T08:37:06;102326.09;;;0.15;77.98
60974;BME280;46846;51.528;5.076;2023-01-29T08:39:31;102321.81;;;0.17;77.99
60974;BME280;46846;51.528;5.076;2023-01-29T08:41:57;102320.97;;;0.18;77.73
60974;BME280;46846;51.528;5.076;2023-01-29T08:44:22;102319.13;;;0.15;78.03
60974;BME280;46846;51.528;5.076;2023-01-29T08:46:47;102309.44;;;0.12;78.37
60974;BME280;46846;51.528;5.076;2023-01-29T08:49:13;102305.34;;;0.21;77.91
60974;BME280;46846;51.528;5.076;2023-01-29T08:51:38;102297.50;;;0.21;77.61
60974;BME280;46846;51.528;5.076;2023-01-29T08:54:03;102300.91;;;0.18;77.96
60974;BME280;46846;51.528;5.076;2023-01-29T08:56:29;102300.16;;;0.22;77.75
60974;BME280;46846;51.528;5.076;2023-01-29T08:58:54;102298.47;;;0.24;77.64
60974;BME280;46846;51.528;5.076;2023-01-29T09:01:19;102299.97;;;0.16;78.07
60974;BME280;46846;51.528;5.076;2023-01-29T09:03:45;102305.00;;;0.10;78.28
60974;BME280;46846;51.528;5.076;2023-01-29T09:06:12;102313.00;;;0.15;78.29
60974;BME280;46846;51.528;5.076;2023-01-29T09:08:40;102322.88;;;0.23;78.05
60974;BME280;46846;51.528;5.076;2023-01-29T09:11:06;102317.78;;;0.26;77.71
60974;BME280;46846;51.528;5.076;2023-01-29T09:13:32;102314.19;;;0.24;78.01
60974;BME280;46846;51.528;5.076;2023-01-29T09:15:58;102309.56;;;0.16;78.20
60974;BME280;46846;51.528;5.076;2023-01-29T09:18:24;102313.22;;;0.21;78.21
60974;BME280;46846;51.528;5.076;2023-01-29T09:20:52;102309.81;;;0.23;77.79
60974;BME280;46846;51.528;5.076;2023-01-29T09:23:18;102308.03;;;0.22;78.14
60974;BME280;46846;51.528;5.076;2023-01-29T09:25:43;102304.63;;;0.25;77.87
60974;BME280;46846;51.528;5.076;2023-01-29T09:28:09;102305.56;;;0.27;78.06
60974;BME280;46846;51.528;5.076;2023-01-29T09:30:34;102307.94;;;0.19;77.97
60974;BME280;46846;51.528;5.076;2023-01-29T09:33:05;102314.06;;;0.20;77.64
60974;BME280;46846;51.528;5.076;2023-01-29T09:35:32;102310.72;;;0.24;78.01
60974;BME280;46846;51.528;5.076;2023-01-29T09:37:57;102302.66;;;0.18;78.32
60974;BME280;46846;51.528;5.076;2023-01-29T09:43:06;102294.94;;;0.22;77.94
60974;BME280;46846;51.528;5.076;2023-01-29T09:45:35;102296.72;;;0.23;77.72
60974;BME280;46846;51.528;5.076;2023-01-29T09:48:02;102292.47;;;0.27;77.43
60974;BME280;46846;51.528;5.076;2023-01-29T09:50:47;102285.03;;;0.12;78.36
60974;BME280;46846;51.528;5.076;2023-01-29T09:53:27;102294.69;;;0.15;78.25
60974;BME280;46846;51.528;5.076;2023-01-29T09:56:05;102291.88;;;0.08;78.37
60974;BME280;46846;51.528;5.076;2023-01-29T09:58:37;102288.31;;;0.06;78.43
60974;BME280;46846;51.528;5.076;2023-01-29T10:01:35;102289.50;;;0.16;78.43
60974;BME280;46846;51.528;5.076;2023-01-29T10:04:06;102296.66;;;0.22;78.37
60974;BME280;46846;51.528;5.076;2023-01-29T10:09:16;102298.78;;;0.06;78.83
60974;BME280;46846;51.528;5.076;2023-01-29T10:14:19;102301.72;;;0.16;78.71
60974;BME280;46846;51.528;5.076;2023-01-29T10:17:12;102305.00;;;0.10;78.07
60974;BME280;46846;51.528;5.076;2023-01-29T10:25:14;102296.66;;;0.22;77.88
60974;BME280;46846;51.528;5.076;2023-01-29T10:27:46;102291.28;;;0.17;78.36
60974;BME280;46846;51.528;5.076;2023-01-29T10:30:36;102283.41;;;0.17;78.65
60974;BME280;46846;51.528;5.076;2023-01-29T10:33:04;102283.19;;;0.09;78.51
60974;BME280;46846;51.528;5.076;2023-01-29T10:35:46;102284.19;;;0.13;78.31
60974;BME280;46846;51.528;5.076;2023-01-29T10:46:39;102272.88;;;0.14;77.96
60974;BME280;46846;51.528;5.076;2023-01-29T10:57:58;102261.25;;;0.33;77.97
60974;BME280;46846;51.528;5.076;2023-01-29T11:00:27;102261.97;;;0.29;77.90
60974;BME280;46846;51.528;5.076;2023-01-29T11:02:56;102254.19;;;0.31;77.71
60974;BME280;46846;51.528;5.076;2023-01-29T11:05:27;102247.22;;;0.31;77.82
60974;BME280;46846;51.528;5.076;2023-01-29T11:08:15;102238.28;;;0.24;78.03
60974;BME280;46846;51.528;5.076;2023-01-29T11:13:34;102226.03;;;0.23;78.52
60974;BME280;46846;51.528;5.076;2023-01-29T11:16:03;102217.47;;;0.29;77.92
60974;BME280;46846;51.528;5.076;2023-01-29T11:18:50;102207.94;;;0.31;77.79
60974;BME280;46846;51.528;5.076;2023-01-29T11:21:16;102192.25;;;0.33;78.04
60974;BME280;46846;51.528;5.076;2023-01-29T11:23:42;102185.91;;;0.24;78.46
60974;BME280;46846;51.528;5.076;2023-01-29T11:26:10;102187.66;;;0.24;78.35
60974;BME280;46846;51.528;5.076;2023-01-29T11:28:40;102185.97;;;0.26;78.14
60974;BME280;46846;51.528;5.076;2023-01-29T11:31:28;102179.88;;;0.27;78.26
60974;BME280;46846;51.528;5.076;2023-01-29T11:34:04;102173.72;;;0.25;78.40
60974;BME280;46846;51.528;5.076;2023-01-29T11:36:36;102171.28;;;0.31;77.80
60974;BME280;46846;51.528;5.076;2023-01-29T11:39:21;102173.53;;;0.19;78.99
60974;BME280;46846;51.528;5.076;2023-01-29T11:41:59;102163.38;;;0.30;78.18
60974;BME280;46846;51.528;5.076;2023-01-29T11:44:33;102159.78;;;0.26;78.06
60974;BME280;46846;51.528;5.076;2023-01-29T11:49:58;102153.50;;;0.21;78.62
60974;BME280;46846;51.528;5.076;2023-01-29T11:52:34;102146.63;;;0.23;78.24
60974;BME280;46846;51.528;5.076;2023-01-29T11:55:04;102136.16;;;0.23;78.32
60974;BME280;46846;51.528;5.076;2023-01-29T11:57:32;102139.09;;;0.35;78.34
60974;BME280;46846;51.528;5.076;2023-01-29T12:00:26;102124.06;;;0.28;78.03
60974;BME280;46846;51.528;5.076;2023-01-29T12:02:55;102120.56;;;0.28;78.52
60974;BME280;46846;51.528;5.076;2023-01-29T12:05:24;102119.06;;;0.37;78.32
60974;BME280;46846;51.528;5.076;2023-01-29T12:07:53;102115.63;;;0.38;78.31
60974;BME280;46846;51.528;5.076;2023-01-29T12:10:35;102116.31;;;0.31;77.75
60974;BME280;46846;51.528;5.076;2023-01-29T12:15:37;102112.19;;;0.41;78.11
60974;BME280;46846;51.528;5.076;2023-01-29T12:20:41;102105.31;;;0.45;77.83
60974;BME280;46846;51.528;5.076;2023-01-29T12:26:04;102109.38;;;0.33;78.27
60974;BME280;46846;51.528;5.076;2023-01-29T12:28:34;102108.34;;;0.28;78.51
60974;BME280;46846;51.528;5.076;2023-01-29T12:37:36;102087.88;;;0.45;77.98
60974;BME280;46846;51.528;5.076;2023-01-29T12:40:10;102078.31;;;0.46;77.98
60974;BME280;46846;51.528;5.076;2023-01-29T12:42:38;102076.38;;;0.40;78.08
60974;BME280;46846;51.528;5.076;2023-01-29T12:45:07;102066.88;;;0.44;78.14
60974;BME280;46846;51.528;5.076;2023-01-29T12:48:03;102057.72;;;0.28;78.63
60974;BME280;46846;51.528;5.076;2023-01-29T12:50:35;102060.31;;;0.26;78.83
60974;BME280;46846;51.528;5.076;2023-01-29T12:55:49;102051.41;;;0.21;79.15
60974;BME280;46846;51.528;5.076;2023-01-29T12:58:44;102041.84;;;0.21;79.39
60974;BME280;46846;51.528;5.076;2023-01-29T13:01:31;102037.47;;;0.22;79.02
60974;BME280;46846;51.528;5.076;2023-01-29T13:04:05;102040.16;;;0.23;79.29
60974;BME280;46846;51.528;5.076;2023-01-29T13:06:39;102030.66;;;0.27;79.60
60974;BME280;46846;51.528;5.076;2023-01-29T13:09:10;102029.81;;;0.28;79.08
60974;BME280;46846;51.528;5.076;2023-01-29T13:11:40;102027.44;;;0.37;78.85
60974;BME280;46846;51.528;5.076;2023-01-29T13:14:26;102022.34;;;0.42;78.85
60974;BME280;46846;51.528;5.076;2023-01-29T13:17:09;102020.31;;;0.32;79.13
60974;BME280;46846;51.528;5.076;2023-01-29T13:19:42;102009.94;;;0.36;79.25
60974;BME280;46846;51.528;5.076;2023-01-29T13:22:20;102002.16;;;0.38;79.00
60974;BME280;46846;51.528;5.076;2023-01-29T13:24:46;102008.00;;;0.29;79.25
60974;BME280;46846;51.528;5.076;2023-01-29T13:27:24;102002.81;;;0.31;79.44
60974;BME280;46846;51.528;5.076;2023-01-29T13:29:51;101997.59;;;0.31;79.34
60974;BME280;46846;51.528;5.076;2023-01-29T13:32:24;101981.81;;;0.28;79.58
60974;BME280;46846;51.528;5.076;2023-01-29T13:34:52;101981.72;;;0.24;79.52
60974;BME280;46846;51.528;5.076;2023-01-29T13:39:56;101980.16;;;0.31;79.91
60974;BME280;46846;51.528;5.076;2023-01-29T13:42:47;101975.88;;;0.35;79.39
60974;BME280;46846;51.528;5.076;2023-01-29T13:45:22;101964.56;;;0.36;79.63
60974;BME280;46846;51.528;5.076;2023-01-29T13:47:50;101945.56;;;0.43;79.68
60974;BME280;46846;51.528;5.076;2023-01-29T13:50:27;101943.81;;;0.44;79.59
60974;BME280;46846;51.528;5.076;2023-01-29T13:52:56;101944.88;;;0.50;79.09
60974;BME280;46846;51.528;5.076;2023-01-29T13:55:28;101943.84;;;0.45;78.96
60974;BME280;46846;51.528;5.076;2023-01-29T13:58:14;101945.88;;;0.57;78.88
60974;BME280;46846;51.528;5.076;2023-01-29T14:06:00;101943.16;;;0.52;79.27
60974;BME280;46846;51.528;5.076;2023-01-29T14:08:43;101950.38;;;0.61;79.20
60974;BME280;46846;51.528;5.076;2023-01-29T14:13:37;101933.75;;;0.61;79.09
60974;BME280;46846;51.528;5.076;2023-01-29T14:18:32;101935.50;;;0.60;79.38
60974;BME280;46846;51.528;5.076;2023-01-29T14:21:19;101940.66;;;0.57;79.16
60974;BME280;46846;51.528;5.076;2023-01-29T14:23:53;101931.88;;;0.55;79.44
60974;BME280;46846;51.528;5.076;2023-01-29T14:29:05;101930.97;;;0.53;79.19
60974;BME280;46846;51.528;5.076;2023-01-29T14:31:53;101937.13;;;0.55;79.60
60974;BME280;46846;51.528;5.076;2023-01-29T14:34:21;101928.19;;;0.47;79.88
60974;BME280;46846;51.528;5.076;2023-01-29T14:36:49;101930.88;;;0.50;79.44
60974;BME280;46846;51.528;5.076;2023-01-29T14:39:22;101929.16;;;0.52;79.68
60974;BME280;46846;51.528;5.076;2023-01-29T14:41:50;101922.09;;;0.48;80.02
60974;BME280;46846;51.528;5.076;2023-01-29T14:49:58;101927.38;;;0.49;79.81
60974;BME280;46846;51.528;5.076;2023-01-29T14:52:28;101924.88;;;0.56;79.61
60974;BME280;46846;51.528;5.076;2023-01-29T14:54:59;101921.28;;;0.50;79.90
60974;BME280;46846;51.528;5.076;2023-01-29T14:57:26;101919.63;;;0.54;79.74
60974;BME280;46846;51.528;5.076;2023-01-29T15:00:04;101914.50;;;0.59;79.39
60974;BME280;46846;51.528;5.076;2023-01-29T15:02:31;101909.09;;;0.52;80.14
60974;BME280;46846;51.528;5.076;2023-01-29T15:05:06;101917.00;;;0.54;80.07
60974;BME280;46846;51.528;5.076;2023-01-29T15:07:40;101902.28;;;0.59;79.73
60974;BME280;46846;51.528;5.076;2023-01-29T15:10:16;101901.47;;;0.60;79.80
60974;BME280;46846;51.528;5.076;2023-01-29T15:12:59;101898.91;;;0.63;79.16
60974;BME280;46846;51.528;5.076;2023-01-29T15:15:46;101898.38;;;0.42;80.62
60974;BME280;46846;51.528;5.076;2023-01-29T15:18:18;101886.34;;;0.50;80.38